Time;durP1;ratioP1;P1;durP2;ratioP2;P2;SDS_P1;SDS_P2;PMS_P1;PMS_P2;Temp;Humidity;BMP_temperature;BMP_pressure;BME280_temperature;BME280_humidity;BME280_pressure;Samples;Min_cycle;Max_cycle;Signal;HPM_P1;HPM_P2
2023/12/24 00:01:54;;;;;;;;;2.00;0.67;;;;;;;;5050651;28;28489;-80
2023/12/24 00:04:20;;;;;;;;;0.00;0.00;;;;;;;;5033283;28;28914;-81
2023/12/24 00:06:45;;;;;;;;;1.00;1.00;;;;;;;;5037312;28;28145;-81
2023/12/24 00:09:10;;;;;;;;;0.00;0.00;;;;;;;;5050023;28;28955;-80
2023/12/24 00:11:36;;;;;;;;;0.00;0.00;;;;;;;;5048757;28;30179;-81
2023/12/24 00:14:02;;;;;;;;;1.00;1.00;;;;;;;;5032430;28;28442;-80
2023/12/24 00:16:27;;;;;;;;;1.00;1.00;;;;;;;;5056205;28;28819;-76
2023/12/24 00:18:52;;;;;;;;;0.00;0.00;;;;;;;;5050711;28;29246;-80
2023/12/24 00:21:18;;;;;;;;;1.00;1.00;;;;;;;;5053925;28;28542;-80
2023/12/24 00:23:45;;;;;;;;;1.00;0.00;;;;;;;;5037743;28;28689;-80
2023/12/24 00:26:10;;;;;;;;;0.00;0.00;;;;;;;;5032190;28;28537;-80
2023/12/24 00:28:36;;;;;;;;;1.00;0.00;;;;;;;;5033464;28;29191;-79
2023/12/24 00:31:01;;;;;;;;;0.00;0.00;;;;;;;;5052383;28;29674;-80
2023/12/24 00:33:26;;;;;;;;;0.00;0.00;;;;;;;;5053501;28;28819;-80
2023/12/24 00:35:54;;;;;;;;;0.00;0.00;;;;;;;;5035811;28;28728;-80
2023/12/24 00:38:20;;;;;;;;;0.00;0.00;;;;;;;;5035873;28;29496;-79
2023/12/24 00:40:45;;;;;;;;;0.00;0.00;;;;;;;;5052954;28;29135;-82
2023/12/24 00:43:10;;;;;;;;;0.00;0.00;;;;;;;;5034331;28;29356;-83
2023/12/24 00:45:36;;;;;;;;;0.00;0.00;;;;;;;;5035356;28;28463;-82
2023/12/24 00:48:02;;;;;;;;;1.00;0.00;;;;;;;;5031832;28;27978;-81
2023/12/24 00:50:27;;;;;;;;;0.00;0.00;;;;;;;;5051575;28;29225;-82
2023/12/24 00:52:52;;;;;;;;;0.67;0.67;;;;;;;;5061427;28;28845;-82
2023/12/24 00:55:18;;;;;;;;;0.67;0.67;;;;;;;;5052194;28;28531;-81
2023/12/24 00:57:43;;;;;;;;;1.00;0.33;;;;;;;;5051356;28;28524;-81
2023/12/24 01:00:08;;;;;;;;;1.67;1.00;;;;;;;;5053964;28;30277;-76
2023/12/24 01:02:34;;;;;;;;;1.00;1.00;;;;;;;;5049580;28;28649;-76
2023/12/24 01:04:59;;;;;;;;;1.00;1.00;;;;;;;;5033788;28;29279;-81
2023/12/24 01:07:25;;;;;;;;;1.00;1.00;;;;;;;;5054330;28;28797;-81
2023/12/24 01:09:51;;;;;;;;;4.00;1.00;;;;;;;;5054103;28;28819;-82
2023/12/24 01:12:16;;;;;;;;;1.00;1.00;;;;;;;;5067365;28;28892;-82
2023/12/24 01:14:41;;;;;;;;;2.00;0.67;;;;;;;;5054615;28;29030;-81
2023/12/24 01:17:07;;;;;;;;;2.67;1.00;;;;;;;;5061262;28;28874;-81
2023/12/24 01:19:32;;;;;;;;;1.00;1.00;;;;;;;;5035424;28;29737;-81
2023/12/24 01:21:58;;;;;;;;;0.67;0.67;;;;;;;;5034855;28;29068;-82
2023/12/24 01:24:23;;;;;;;;;0.67;0.67;;;;;;;;5053074;28;29020;-82
2023/12/24 01:26:49;;;;;;;;;2.00;1.00;;;;;;;;5035077;28;28939;-81
2023/12/24 01:29:14;;;;;;;;;1.00;1.00;;;;;;;;5052828;28;29279;-80
2023/12/24 01:31:39;;;;;;;;;0.00;0.00;;;;;;;;5036171;28;28552;-82
2023/12/24 01:34:05;;;;;;;;;0.00;0.00;;;;;;;;5034195;28;28540;-81
2023/12/24 01:36:34;;;;;;;;;1.00;1.00;;;;;;;;5054471;28;28878;-79
2023/12/24 01:39:00;;;;;;;;;2.00;0.50;;;;;;;;5052693;28;28523;-81
2023/12/24 01:41:25;;;;;;;;;1.00;0.00;;;;;;;;5052372;28;28516;-81
2023/12/24 01:43:51;;;;;;;;;0.67;0.67;;;;;;;;5052739;28;28877;-82
2023/12/24 01:46:20;;;;;;;;;2.00;0.67;;;;;;;;5053430;28;28640;-82
2023/12/24 01:48:46;;;;;;;;;0.67;0.67;;;;;;;;5051043;28;28480;-82
2023/12/24 01:51:12;;;;;;;;;2.00;1.00;;;;;;;;5053988;28;28394;-81
2023/12/24 01:53:38;;;;;;;;;0.33;0.33;;;;;;;;5051348;28;28169;-81
2023/12/24 01:56:04;;;;;;;;;0.00;0.00;;;;;;;;5052652;28;29305;-83
2023/12/24 01:58:29;;;;;;;;;1.00;1.00;;;;;;;;5051785;28;28791;-81
2023/12/24 02:00:56;;;;;;;;;0.00;0.00;;;;;;;;5042879;28;29223;-82
2023/12/24 02:03:22;;;;;;;;;0.00;0.00;;;;;;;;5040294;28;28809;-80
2023/12/24 02:05:48;;;;;;;;;0.00;0.00;;;;;;;;5054065;28;28732;-80
2023/12/24 02:08:21;;;;;;;;;0.33;0.33;;;;;;;;5052834;28;28580;-82
2023/12/24 02:10:47;;;;;;;;;0.00;0.00;;;;;;;;5038227;28;28534;-82
2023/12/24 02:13:12;;;;;;;;;0.67;0.67;;;;;;;;5054176;28;29567;-82
2023/12/24 02:15:40;;;;;;;;;3.00;0.00;;;;;;;;5052569;28;28638;-81
2023/12/24 02:18:08;;;;;;;;;1.00;1.00;;;;;;;;5048770;28;28407;-80
2023/12/24 02:20:34;;;;;;;;;1.00;1.00;;;;;;;;5051087;28;29886;-82
2023/12/24 02:22:59;;;;;;;;;0.00;0.00;;;;;;;;5052706;28;28442;-83
2023/12/24 02:25:26;;;;;;;;;0.33;0.33;;;;;;;;5045022;28;29150;-81
2023/12/24 02:27:51;;;;;;;;;1.00;1.00;;;;;;;;5024494;28;30021;-81
2023/12/24 02:30:21;;;;;;;;;0.00;0.00;;;;;;;;5038088;28;29537;-83
2023/12/24 02:32:49;;;;;;;;;0.00;0.00;;;;;;;;5034236;28;28443;-83
2023/12/24 02:35:14;;;;;;;;;0.00;0.00;;;;;;;;5030775;28;29527;-80
2023/12/24 02:37:40;;;;;;;;;0.00;0.00;;;;;;;;5051976;28;29096;-81
2023/12/24 02:40:06;;;;;;;;;2.00;0.67;;;;;;;;5052676;28;28655;-82
2023/12/24 02:42:31;;;;;;;;;1.33;1.00;;;;;;;;5034618;28;28522;-82
2023/12/24 02:44:56;;;;;;;;;1.00;1.00;;;;;;;;5034062;28;29283;-81
2023/12/24 02:47:21;;;;;;;;;0.33;0.33;;;;;;;;5052489;28;29548;-81
2023/12/24 02:49:47;;;;;;;;;1.00;1.00;;;;;;;;5042007;28;28638;-81
2023/12/24 02:52:12;;;;;;;;;1.33;0.67;;;;;;;;5035963;28;27980;-81
2023/12/24 02:54:37;;;;;;;;;2.33;1.00;;;;;;;;5057244;28;28852;-81
2023/12/24 02:57:03;;;;;;;;;1.00;1.00;;;;;;;;5055535;28;29370;-81
2023/12/24 02:59:28;;;;;;;;;1.00;1.00;;;;;;;;5052948;28;28478;-81
2023/12/24 03:01:54;;;;;;;;;1.00;1.00;;;;;;;;5051776;28;28450;-80
2023/12/24 03:04:19;;;;;;;;;2.00;2.00;;;;;;;;5050936;28;28898;-79
2023/12/24 03:06:45;;;;;;;;;1.00;0.00;;;;;;;;5052157;28;28541;-80
2023/12/24 03:09:10;;;;;;;;;0.67;0.67;;;;;;;;5052401;28;27950;-81
2023/12/24 03:11:36;;;;;;;;;1.67;1.67;;;;;;;;5041516;28;28811;-80
2023/12/24 03:14:01;;;;;;;;;0.33;0.33;;;;;;;;5051484;28;29192;-81
2023/12/24 03:16:26;;;;;;;;;1.00;1.00;;;;;;;;5037596;28;28590;-80
2023/12/24 03:18:52;;;;;;;;;0.33;0.33;;;;;;;;5032120;28;29613;-81
2023/12/24 03:21:17;;;;;;;;;0.00;0.00;;;;;;;;5051048;28;28606;-80
2023/12/24 03:23:42;;;;;;;;;0.00;0.00;;;;;;;;5050342;28;28835;-79
2023/12/24 03:26:18;;;;;;;;;1.00;1.00;;;;;;;;5041043;28;30252;-79
2023/12/24 03:28:44;;;;;;;;;1.33;0.00;;;;;;;;5050534;28;28533;-81
2023/12/24 03:31:11;;;;;;;;;1.00;1.00;;;;;;;;5038967;28;28552;-81
2023/12/24 03:33:38;;;;;;;;;0.00;0.00;;;;;;;;5050829;28;28727;-82
2023/12/24 03:36:07;;;;;;;;;0.00;0.00;;;;;;;;5047652;28;28530;-82
2023/12/24 03:38:36;;;;;;;;;1.00;1.00;;;;;;;;5049460;28;29117;-80
2023/12/24 03:41:01;;;;;;;;;3.00;0.00;;;;;;;;5054229;28;28818;-81
2023/12/24 03:43:27;;;;;;;;;1.33;1.33;;;;;;;;5050360;28;29674;-80
2023/12/24 03:45:52;;;;;;;;;0.67;0.00;;;;;;;;5036281;28;29937;-81
2023/12/24 03:48:18;;;;;;;;;1.00;1.00;;;;;;;;5051294;28;28837;-83
2023/12/24 03:50:43;;;;;;;;;0.33;0.33;;;;;;;;5050451;28;28898;-80
2023/12/24 03:53:08;;;;;;;;;1.00;0.33;;;;;;;;5034682;28;29542;-79
2023/12/24 03:55:33;;;;;;;;;0.00;0.00;;;;;;;;5059023;28;29127;-79
2023/12/24 03:57:59;;;;;;;;;1.00;1.00;;;;;;;;5060134;28;28518;-79
2023/12/24 04:00:25;;;;;;;;;2.33;0.00;;;;;;;;5054152;28;28507;-79
2023/12/24 04:02:52;;;;;;;;;1.67;0.33;;;;;;;;5063400;28;28617;-81
2023/12/24 04:05:17;;;;;;;;;0.00;0.00;;;;;;;;5062747;28;28320;-80
2023/12/24 04:07:43;;;;;;;;;0.00;0.00;;;;;;;;5052033;28;28795;-81
2023/12/24 04:10:09;;;;;;;;;0.00;0.00;;;;;;;;5048951;28;28904;-79
2023/12/24 04:12:35;;;;;;;;;0.00;0.00;;;;;;;;5051331;28;28508;-80
2023/12/24 04:15:00;;;;;;;;;0.00;0.00;;;;;;;;5032253;28;28576;-81
2023/12/24 04:17:26;;;;;;;;;1.67;1.33;;;;;;;;5039202;28;28819;-81
2023/12/24 04:19:51;;;;;;;;;1.67;1.00;;;;;;;;5050212;28;28541;-80
2023/12/24 04:22:17;;;;;;;;;0.00;0.00;;;;;;;;5050246;28;28597;-82
2023/12/24 04:24:42;;;;;;;;;1.67;1.67;;;;;;;;5050460;28;28544;-80
2023/12/24 04:27:08;;;;;;;;;0.00;0.00;;;;;;;;5041788;28;28801;-78
2023/12/24 04:29:33;;;;;;;;;0.00;0.00;;;;;;;;5016755;28;28585;-81
2023/12/24 04:31:58;;;;;;;;;1.33;0.00;;;;;;;;5050024;28;27886;-80
2023/12/24 04:34:24;;;;;;;;;2.67;1.00;;;;;;;;5047846;28;30880;-80
2023/12/24 04:36:49;;;;;;;;;1.67;0.33;;;;;;;;5055405;28;29680;-79
2023/12/24 04:39:14;;;;;;;;;0.67;0.67;;;;;;;;5053610;28;28580;-80
2023/12/24 04:41:40;;;;;;;;;2.67;2.67;;;;;;;;5059886;28;29628;-79
2023/12/24 04:44:05;;;;;;;;;2.67;0.67;;;;;;;;5054923;28;28437;-80
2023/12/24 04:46:30;;;;;;;;;1.00;0.00;;;;;;;;5058283;28;28872;-81
2023/12/24 04:48:56;;;;;;;;;1.00;1.00;;;;;;;;5054618;28;28842;-78
2023/12/24 04:51:22;;;;;;;;;2.00;1.00;;;;;;;;5038063;28;29654;-80
2023/12/24 04:53:47;;;;;;;;;1.00;1.00;;;;;;;;5053982;28;28601;-80
2023/12/24 04:56:19;;;;;;;;;1.00;0.00;;;;;;;;5055448;28;28883;-81
2023/12/24 04:58:44;;;;;;;;;0.67;0.67;;;;;;;;5063645;28;28477;-80
2023/12/24 05:01:10;;;;;;;;;0.00;0.00;;;;;;;;5056147;28;28843;-80
2023/12/24 05:03:35;;;;;;;;;2.67;0.67;;;;;;;;5050786;28;29890;-81
2023/12/24 05:06:00;;;;;;;;;1.33;0.67;;;;;;;;5039561;28;29528;-80
2023/12/24 05:08:26;;;;;;;;;0.67;0.67;;;;;;;;5053827;28;28485;-80
2023/12/24 05:10:53;;;;;;;;;5.00;1.67;;;;;;;;5053680;28;28571;-79
2023/12/24 05:13:18;;;;;;;;;0.67;0.67;;;;;;;;5043025;28;30087;-80
2023/12/24 05:15:43;;;;;;;;;0.67;0.67;;;;;;;;5053172;28;28402;-79
2023/12/24 05:18:08;;;;;;;;;2.00;1.33;;;;;;;;5049932;28;28580;-78
2023/12/24 05:20:34;;;;;;;;;1.67;1.67;;;;;;;;5057977;28;28406;-81
2023/12/24 05:22:59;;;;;;;;;3.33;2.33;;;;;;;;5053553;28;28781;-80
2023/12/24 05:25:24;;;;;;;;;1.67;1.67;;;;;;;;5052702;28;28964;-80
2023/12/24 05:27:49;;;;;;;;;3.00;1.00;;;;;;;;5051867;28;28799;-80
2023/12/24 05:30:15;;;;;;;;;0.67;0.67;;;;;;;;5051837;28;28568;-80
2023/12/24 05:32:40;;;;;;;;;0.67;0.67;;;;;;;;5052074;28;29095;-80
2023/12/24 05:35:06;;;;;;;;;1.33;1.33;;;;;;;;5039267;28;28674;-79
2023/12/24 05:37:31;;;;;;;;;3.00;3.00;;;;;;;;5034457;28;28514;-80
2023/12/24 05:39:56;;;;;;;;;2.67;0.67;;;;;;;;5053291;28;28805;-80
2023/12/24 05:42:21;;;;;;;;;2.67;2.00;;;;;;;;5052187;28;28504;-80
2023/12/24 05:44:47;;;;;;;;;1.67;1.67;;;;;;;;5046560;28;28566;-81
2023/12/24 05:47:12;;;;;;;;;6.33;1.67;;;;;;;;5059599;28;28435;-80
2023/12/24 05:49:37;;;;;;;;;3.67;1.33;;;;;;;;5034096;28;30458;-80
2023/12/24 05:52:03;;;;;;;;;3.33;1.33;;;;;;;;5052507;28;28327;-80
2023/12/24 05:54:28;;;;;;;;;2.33;1.67;;;;;;;;5036146;28;28483;-81
2023/12/24 05:56:53;;;;;;;;;0.67;0.67;;;;;;;;5031994;28;28514;-79
2023/12/24 05:59:19;;;;;;;;;1.33;0.67;;;;;;;;5033897;28;28844;-81
2023/12/24 06:01:44;;;;;;;;;3.33;0.67;;;;;;;;5058334;28;29072;-81
2023/12/24 06:04:09;;;;;;;;;3.67;0.67;;;;;;;;5037169;28;29009;-80
2023/12/24 06:06:39;;;;;;;;;1.33;1.00;;;;;;;;5051511;28;28821;-79
2023/12/24 06:09:04;;;;;;;;;1.33;0.67;;;;;;;;5053471;28;28980;-80
2023/12/24 06:11:29;;;;;;;;;1.00;1.00;;;;;;;;5051268;28;28367;-82
2023/12/24 06:13:54;;;;;;;;;6.67;4.33;;;;;;;;5051508;28;29046;-81
2023/12/24 06:16:20;;;;;;;;;2.00;1.67;;;;;;;;5038040;28;28465;-81
2023/12/24 06:18:45;;;;;;;;;7.67;2.67;;;;;;;;5056507;28;28499;-80
2023/12/24 06:21:11;;;;;;;;;3.00;1.00;;;;;;;;5051419;28;28546;-82
2023/12/24 06:23:37;;;;;;;;;10.00;3.00;;;;;;;;5051955;28;28487;-81
2023/12/24 06:26:02;;;;;;;;;3.33;0.67;;;;;;;;5042931;28;28756;-82
2023/12/24 06:28:27;;;;;;;;;2.67;2.33;;;;;;;;5052804;28;28975;-81
2023/12/24 06:30:53;;;;;;;;;3.33;2.00;;;;;;;;5036963;28;29990;-81
2023/12/24 06:33:18;;;;;;;;;4.33;0.00;;;;;;;;5029959;28;28918;-82
2023/12/24 06:35:43;;;;;;;;;3.00;1.00;;;;;;;;5047311;28;28736;-81
2023/12/24 06:38:08;;;;;;;;;2.67;2.00;;;;;;;;5049732;28;29469;-82
2023/12/24 06:40:34;;;;;;;;;1.67;1.00;;;;;;;;5033454;28;30728;-81
2023/12/24 06:42:59;;;;;;;;;4.67;1.67;;;;;;;;5034265;28;28812;-81
2023/12/24 06:45:25;;;;;;;;;2.33;1.33;;;;;;;;5051474;28;28567;-81
2023/12/24 06:47:50;;;;;;;;;8.00;2.00;;;;;;;;5054164;28;28703;-80
2023/12/24 06:50:15;;;;;;;;;4.00;1.33;;;;;;;;5050227;28;29773;-80
2023/12/24 06:52:41;;;;;;;;;2.00;1.33;;;;;;;;5053592;28;28498;-82
2023/12/24 06:55:06;;;;;;;;;3.33;2.00;;;;;;;;5049013;28;28908;-80
2023/12/24 06:57:32;;;;;;;;;1.67;1.67;;;;;;;;5052273;28;29018;-80
2023/12/24 07:00:02;;;;;;;;;1.67;1.67;;;;;;;;5059739;28;28885;-82
2023/12/24 07:02:31;;;;;;;;;2.00;2.00;;;;;;;;5003316;28;29110;-80
2023/12/24 07:04:57;;;;;;;;;0.67;0.67;;;;;;;;5034769;28;29688;-80
2023/12/24 07:07:22;;;;;;;;;5.00;0.33;;;;;;;;5053923;28;28618;-80
2023/12/24 07:09:48;;;;;;;;;3.00;1.33;;;;;;;;5052891;28;29525;-80
2023/12/24 07:12:13;;;;;;;;;1.33;1.00;;;;;;;;5049181;28;28501;-76
2023/12/24 07:14:38;;;;;;;;;0.00;0.00;;;;;;;;5048548;28;28501;-77
2023/12/24 07:17:04;;;;;;;;;1.67;0.00;;;;;;;;5026204;28;29703;-74
2023/12/24 07:19:40;;;;;;;;;2.33;1.67;;;;;;;;5031083;28;30408;-72
2023/12/24 07:22:05;;;;;;;;;5.67;3.00;;;;;;;;5032306;28;28563;-76
2023/12/24 07:24:30;;;;;;;;;2.33;2.33;;;;;;;;5044868;28;28900;-72
2023/12/24 07:26:56;;;;;;;;;7.33;1.67;;;;;;;;5045483;28;28941;-72
2023/12/24 07:29:21;;;;;;;;;2.00;2.00;;;;;;;;5044248;28;28490;-73
2023/12/24 07:31:47;;;;;;;;;1.00;1.00;;;;;;;;5035157;28;29677;-74
2023/12/24 07:34:12;;;;;;;;;3.33;2.67;;;;;;;;5045874;28;28573;-71
2023/12/24 07:36:37;;;;;;;;;3.00;3.00;;;;;;;;5046695;28;28987;-72
2023/12/24 07:39:03;;;;;;;;;2.33;2.00;;;;;;;;5045077;28;28815;-72
2023/12/24 07:41:30;;;;;;;;;0.67;0.67;;;;;;;;5049267;28;28910;-79
2023/12/24 07:43:55;;;;;;;;;9.33;4.00;;;;;;;;5032897;28;28562;-81
2023/12/24 07:46:21;;;;;;;;;3.00;2.67;;;;;;;;5052118;28;28567;-79
2023/12/24 07:48:46;;;;;;;;;8.67;7.67;;;;;;;;5044581;28;28628;-77
2023/12/24 07:51:11;;;;;;;;;6.33;2.00;;;;;;;;5047063;28;28506;-76
2023/12/24 07:53:39;;;;;;;;;8.00;4.00;;;;;;;;5047663;28;29050;-76
2023/12/24 07:56:10;;;;;;;;;3.00;3.00;;;;;;;;5025786;28;29758;-77
2023/12/24 07:58:37;;;;;;;;;4.33;2.67;;;;;;;;5048888;28;28563;-79
2023/12/24 08:01:02;;;;;;;;;3.33;3.00;;;;;;;;5051556;28;28558;-79
2023/12/24 08:03:27;;;;;;;;;6.33;2.67;;;;;;;;5046963;28;28757;-78
2023/12/24 08:05:53;;;;;;;;;7.33;4.00;;;;;;;;5044394;28;28868;-78
2023/12/24 08:08:18;;;;;;;;;18.00;10.67;;;;;;;;5051754;28;29444;-79
2023/12/24 08:10:48;;;;;;;;;3.67;2.00;;;;;;;;5035095;28;28589;-76
2023/12/24 08:13:14;;;;;;;;;7.67;6.33;;;;;;;;5052115;28;28664;-80
2023/12/24 08:15:39;;;;;;;;;11.00;9.33;;;;;;;;5036903;28;29400;-79
2023/12/24 08:18:04;;;;;;;;;5.67;5.67;;;;;;;;5047017;28;29018;-77
2023/12/24 08:20:30;;;;;;;;;4.00;4.00;;;;;;;;5042410;28;28694;-74
2023/12/24 08:22:55;;;;;;;;;2.67;2.33;;;;;;;;5045930;28;29022;-75
2023/12/24 08:25:21;;;;;;;;;7.67;4.00;;;;;;;;5045217;28;28475;-74
2023/12/24 08:27:47;;;;;;;;;2.00;1.00;;;;;;;;5027972;28;28499;-74
2023/12/24 08:30:12;;;;;;;;;5.00;5.00;;;;;;;;5048225;28;28509;-74
2023/12/24 08:32:37;;;;;;;;;3.00;3.00;;;;;;;;5029709;28;29037;-75
2023/12/24 08:35:03;;;;;;;;;2.67;2.67;;;;;;;;5019755;28;29416;-75
2023/12/24 08:37:29;;;;;;;;;8.33;5.00;;;;;;;;5046664;28;30010;-76
2023/12/24 08:39:54;;;;;;;;;2.67;1.67;;;;;;;;5026272;28;28563;-76
2023/12/24 08:42:22;;;;;;;;;1.00;1.00;;;;;;;;5051199;28;28565;-78
2023/12/24 08:44:48;;;;;;;;;2.00;0.67;;;;;;;;5055379;28;29119;-77
2023/12/24 08:47:38;;;;;;;;;3.67;3.67;;;;;;;;5050735;28;30108;-77
2023/12/24 08:50:07;;;;;;;;;4.00;2.00;;;;;;;;5027757;28;28521;-79
2023/12/24 08:52:49;;;;;;;;;;;;;;;;;;;;;
2023/12/24 08:55:15;;;;;;;;;3.33;3.33;;;;;;;;5046802;28;57156;-79
2023/12/24 08:57:53;;;;;;;;;4.00;2.67;;;;;;;;5054065;28;29517;-81
2023/12/24 09:00:43;;;;;;;;;7.00;5.00;;;;;;;;5056214;28;28638;-79
2023/12/24 09:03:09;;;;;;;;;4.33;4.00;;;;;;;;5054550;28;28612;-80
2023/12/24 09:05:34;;;;;;;;;4.00;3.00;;;;;;;;5049103;28;28556;-79
2023/12/24 09:07:59;;;;;;;;;7.33;4.67;;;;;;;;5026888;28;29654;-79
2023/12/24 09:10:25;;;;;;;;;5.00;3.00;;;;;;;;5029674;28;29016;-78
2023/12/24 09:12:50;;;;;;;;;2.67;1.67;;;;;;;;5048725;28;28842;-80
2023/12/24 09:15:40;;;;;;;;;1.00;1.00;;;;;;;;5054089;28;28624;-80
2023/12/24 09:18:05;;;;;;;;;2.00;2.00;;;;;;;;5046555;28;29690;-78
2023/12/24 09:20:31;;;;;;;;;3.00;3.00;;;;;;;;5045916;28;28815;-80
2023/12/24 09:22:56;;;;;;;;;5.33;2.33;;;;;;;;5047977;28;28406;-82
2023/12/24 09:25:22;;;;;;;;;7.67;3.33;;;;;;;;5053900;28;28540;-81
2023/12/24 09:27:47;;;;;;;;;2.33;2.00;;;;;;;;5050080;28;28620;-78
2023/12/24 09:30:13;;;;;;;;;9.00;2.00;;;;;;;;5033095;28;28938;-81
2023/12/24 09:32:38;;;;;;;;;4.00;3.00;;;;;;;;5047913;28;28526;-76
2023/12/24 09:35:04;;;;;;;;;2.67;2.67;;;;;;;;5049303;28;28628;-75
2023/12/24 09:37:30;;;;;;;;;3.50;3.50;;;;;;;;5049414;28;28465;-75
2023/12/24 09:39:55;;;;;;;;;5.00;3.00;;;;;;;;5044813;28;28818;-75
2023/12/24 09:42:24;;;;;;;;;3.00;3.00;;;;;;;;5045271;28;28682;-75
2023/12/24 09:44:49;;;;;;;;;2.33;1.00;;;;;;;;5050326;28;28874;-80
2023/12/24 09:47:14;;;;;;;;;6.67;3.00;;;;;;;;5050556;28;30068;-79
2023/12/24 09:49:40;;;;;;;;;4.00;1.33;;;;;;;;5051315;28;28571;-80
2023/12/24 09:52:05;;;;;;;;;2.00;2.00;;;;;;;;5052983;28;28526;-75
2023/12/24 09:57:22;;;;;;;;;4.33;3.00;;;;;;;;5015069;28;28530;-74
2023/12/24 09:59:48;;;;;;;;;2.00;1.33;;;;;;;;5054781;28;28638;-74
2023/12/24 10:02:13;;;;;;;;;2.33;1.33;;;;;;;;5057317;28;28802;-72
2023/12/24 10:04:39;;;;;;;;;4.67;3.67;;;;;;;;5056634;28;28501;-72
2023/12/24 10:07:04;;;;;;;;;6.00;3.67;;;;;;;;5036030;28;29132;-72
2023/12/24 10:09:43;;;;;;;;;3.00;2.00;;;;;;;;5051637;28;28345;-78
2023/12/24 10:12:09;;;;;;;;;2.67;2.00;;;;;;;;5036682;28;28831;-74
2023/12/24 10:14:35;;;;;;;;;5.00;3.00;;;;;;;;5055123;28;29899;-73
2023/12/24 10:19:51;;;;;;;;;4.50;4.00;;;;;;;;5042377;28;28871;-70
2023/12/24 10:22:22;;;;;;;;;6.00;4.00;;;;;;;;5034759;28;28696;-72
2023/12/24 10:24:47;;;;;;;;;4.67;3.00;;;;;;;;5050373;28;28520;-75
2023/12/24 10:27:14;;;;;;;;;4.00;2.00;;;;;;;;5048836;28;30065;-71
2023/12/24 10:30:02;;;;;;;;;9.67;6.67;;;;;;;;5054473;28;28608;-77
2023/12/24 10:32:29;;;;;;;;;6.00;3.67;;;;;;;;5060880;28;28728;-73
2023/12/24 10:38:35;;;;;;;;;3.00;3.00;;;;;;;;5063983;28;28042;-77
2023/12/24 10:41:01;;;;;;;;;3.00;2.00;;;;;;;;5053728;28;28417;-78
2023/12/24 10:43:26;;;;;;;;;5.00;3.00;;;;;;;;5045379;28;28501;-74
2023/12/24 10:45:52;;;;;;;;;5.00;2.00;;;;;;;;5054912;28;28806;-78
2023/12/24 10:48:20;;;;;;;;;3.00;3.00;;;;;;;;5054319;28;28893;-79
2023/12/24 10:50:46;;;;;;;;;4.67;3.33;;;;;;;;5048541;28;28396;-79
2023/12/24 10:53:13;;;;;;;;;3.00;2.00;;;;;;;;5047495;28;28557;-78
2023/12/24 10:55:39;;;;;;;;;4.00;3.00;;;;;;;;5059388;28;28418;-79
2023/12/24 10:58:10;;;;;;;;;4.00;3.67;;;;;;;;5065958;28;28540;-79
2023/12/24 11:00:36;;;;;;;;;4.00;1.25;;;;;;;;5055354;28;28849;-79
2023/12/24 11:03:01;;;;;;;;;3.33;2.00;;;;;;;;5058326;28;28607;-79
2023/12/24 11:05:46;;;;;;;;;12.33;3.00;;;;;;;;5058667;28;28839;-78
2023/12/24 11:08:21;;;;;;;;;4.00;4.00;;;;;;;;5059439;28;28548;-81
2023/12/24 11:10:53;;;;;;;;;1.75;1.75;;;;;;;;5058729;28;28844;-79
2023/12/24 11:13:36;;;;;;;;;1.67;0.67;;;;;;;;5043653;28;29694;-79
2023/12/24 11:16:10;;;;;;;;;3.33;3.00;;;;;;;;5067675;28;28538;-80
2023/12/24 11:18:40;;;;;;;;;2.00;1.25;;;;;;;;5066405;28;29690;-78
2023/12/24 11:21:06;;;;;;;;;5.25;1.00;;;;;;;;5059142;28;28500;-80
2023/12/24 11:23:31;;;;;;;;;4.33;3.00;;;;;;;;5058508;28;28915;-74
2023/12/24 11:25:56;;;;;;;;;6.67;3.00;;;;;;;;5038191;28;28255;-75
2023/12/24 11:28:22;;;;;;;;;8.67;7.67;;;;;;;;5046409;28;30252;-75
2023/12/24 11:30:53;;;;;;;;;8.33;5.00;;;;;;;;5055982;28;28566;-75
2023/12/24 11:33:27;;;;;;;;;7.00;5.33;;;;;;;;5059802;28;28536;-75
2023/12/24 11:36:16;;;;;;;;;5.33;5.00;;;;;;;;5058421;28;28512;-77
2023/12/24 11:38:41;;;;;;;;;4.33;4.00;;;;;;;;5066149;28;28537;-77
2023/12/24 11:41:16;;;;;;;;;3.00;3.00;;;;;;;;5047675;28;28828;-76
2023/12/24 11:43:50;;;;;;;;;10.00;8.00;;;;;;;;5058929;28;28529;-80
2023/12/24 11:46:16;;;;;;;;;11.67;5.67;;;;;;;;5066745;28;28653;-73
2023/12/24 11:48:41;;;;;;;;;3.00;3.00;;;;;;;;5048778;28;29732;-80
2023/12/24 11:51:08;;;;;;;;;3.67;3.00;;;;;;;;5058027;28;28459;-78
2023/12/24 11:53:39;;;;;;;;;2.67;2.00;;;;;;;;5067173;28;28029;-79
2023/12/24 11:56:15;;;;;;;;;5.00;3.00;;;;;;;;5076064;28;28122;-78
2023/12/24 11:59:00;;;;;;;;;8.67;4.00;;;;;;;;5063502;28;28751;-80
2023/12/24 12:01:30;;;;;;;;;4.75;3.50;;;;;;;;5065549;28;28425;-80
2023/12/24 12:03:59;;;;;;;;;3.00;2.67;;;;;;;;5055827;28;28047;-79
2023/12/24 12:06:31;;;;;;;;;7.33;5.33;;;;;;;;5062524;28;29121;-81
2023/12/24 12:09:04;;;;;;;;;3.25;2.75;;;;;;;;5062511;28;28345;-79
2023/12/24 12:11:35;;;;;;;;;11.25;4.75;;;;;;;;5060464;28;28461;-76
2023/12/24 12:14:22;;;;;;;;;3.00;3.00;;;;;;;;5042109;28;28566;-78
2023/12/24 12:16:49;;;;;;;;;3.00;2.50;;;;;;;;5049806;28;28813;-77
2023/12/24 12:19:15;;;;;;;;;2.75;2.25;;;;;;;;5053267;28;31030;-83
2023/12/24 12:21:43;;;;;;;;;7.25;3.50;;;;;;;;5052641;28;28552;-77
2023/12/24 12:28:27;;;;;;;;;3.00;2.00;;;;;;;;5006477;28;28236;-72
2023/12/24 12:30:46;;;;;;;;;;;;;;;;;;;;;
2023/12/24 12:34:03;;;;;;;;;5.00;3.00;;;;;;;;5051967;28;56181;-78
2023/12/24 12:36:43;;;;;;;;;3.25;2.00;;;;;;;;5045068;28;28471;-83
2023/12/24 12:39:25;;;;;;;;;;;;;;;;;;;;;
2023/12/24 12:41:51;;;;;;;;;4.33;2.33;;;;;;;;5044872;28;58524;-72
2023/12/24 12:44:20;;;;;;;;;4.75;3.00;;;;;;;;5049502;28;27887;-80
2023/12/24 12:46:48;;;;;;;;;3.00;1.25;;;;;;;;5052101;28;28515;-78
2023/12/24 12:49:13;;;;;;;;;2.33;2.00;;;;;;;;5039340;28;29662;-78
2023/12/24 12:51:38;;;;;;;;;4.67;2.00;;;;;;;;5047784;28;28900;-72
2023/12/24 12:54:05;;;;;;;;;0.33;0.00;;;;;;;;5045777;28;28867;-73
2023/12/24 13:02:51;;;;;;;;;3.00;2.00;;;;;;;;5058299;28;28720;-73
2023/12/24 13:05:22;;;;;;;;;3.00;3.00;;;;;;;;5052571;28;28548;-75
2023/12/24 13:07:51;;;;;;;;;5.00;3.00;;;;;;;;5042629;28;28569;-73
2023/12/24 13:10:37;;;;;;;;;3.33;2.33;;;;;;;;5050742;28;28661;-74
2023/12/24 13:13:19;;;;;;;;;2.00;0.75;;;;;;;;5050852;28;30110;-79
2023/12/24 13:15:45;;;;;;;;;3.00;2.00;;;;;;;;5050843;28;28590;-78
2023/12/24 13:18:16;;;;;;;;;1.00;1.00;;;;;;;;5051343;28;28824;-78
2023/12/24 13:20:46;;;;;;;;;2.00;1.00;;;;;;;;5053863;28;28545;-78
2023/12/24 13:26:15;;;;;;;;;4.25;2.00;;;;;;;;5021660;28;29069;-75
2023/12/24 13:28:44;;;;;;;;;2.33;2.33;;;;;;;;5046081;28;27852;-77
2023/12/24 13:44:01;;;;;;;;;3.00;3.00;;;;;;;;4883385;29;28628;-78
2023/12/24 13:46:26;;;;;;;;;4.00;3.00;;;;;;;;4978339;28;28769;-76
2023/12/24 13:49:01;;;;;;;;;2.33;2.33;;;;;;;;5009148;28;28554;-79
2023/12/24 13:51:31;;;;;;;;;3.00;2.00;;;;;;;;5044228;28;28533;-78
2023/12/24 13:54:07;;;;;;;;;4.75;3.25;;;;;;;;5043529;28;29321;-80
2023/12/24 13:56:58;;;;;;;;;4.33;3.00;;;;;;;;5062961;28;28844;-77
2023/12/24 13:59:23;;;;;;;;;5.50;3.25;;;;;;;;5067774;28;28069;-80
2023/12/24 14:05:55;;;;;;;;;2.00;2.00;;;;;;;;5039285;28;28372;-80
2023/12/24 14:11:46;;;;;;;;;1.75;1.00;;;;;;;;5081523;28;28793;-78
2023/12/24 14:14:24;;;;;;;;;;;;;;;;;;;;;
2023/12/24 14:17:04;;;;;;;;;10.67;8.33;;;;;;;;5033520;28;56985;-74
2023/12/24 14:20:17;;;;;;;;;3.00;3.00;;;;;;;;5038002;28;28417;-73
2023/12/24 14:23:18;;;;;;;;;6.00;3.00;;;;;;;;5035446;28;28415;-74
2023/12/24 14:25:46;;;;;;;;;1.33;1.00;;;;;;;;5020824;28;28412;-75
2023/12/24 14:28:11;;;;;;;;;2.00;1.67;;;;;;;;5036475;28;31101;-77
2023/12/24 14:30:40;;;;;;;;;4.67;2.00;;;;;;;;5038553;28;28521;-73
2023/12/24 14:33:18;;;;;;;;;5.50;2.25;;;;;;;;5039807;28;28383;-76
2023/12/24 14:35:47;;;;;;;;;2.67;2.67;;;;;;;;5043637;28;28225;-77
2023/12/24 14:38:30;;;;;;;;;3.00;3.00;;;;;;;;5026322;28;27932;-76
2023/12/24 14:40:55;;;;;;;;;2.00;2.00;;;;;;;;5037185;28;28848;-76
2023/12/24 14:44:05;;;;;;;;;6.67;5.00;;;;;;;;5031403;28;28583;-77
2023/12/24 14:46:40;;;;;;;;;7.67;2.33;;;;;;;;4992043;28;28796;-75
2023/12/24 14:49:23;;;;;;;;;4.00;3.00;;;;;;;;4979901;28;29358;-75
2023/12/24 14:54:57;;;;;;;;;3.50;3.25;;;;;;;;5068701;28;28524;-79
2023/12/24 14:57:38;;;;;;;;;2.00;2.00;;;;;;;;5061572;28;28049;-76
2023/12/24 15:00:07;;;;;;;;;3.67;3.67;;;;;;;;5086175;28;28677;-74
2023/12/24 15:05:58;;;;;;;;;3.33;3.33;;;;;;;;5063419;28;27892;-74
2023/12/24 15:08:23;;;;;;;;;9.00;4.67;;;;;;;;5076140;28;28520;-78
2023/12/24 15:10:56;;;;;;;;;4.67;3.00;;;;;;;;5077367;28;29268;-77
2023/12/24 15:13:22;;;;;;;;;6.33;4.33;;;;;;;;5060151;28;30535;-79
2023/12/24 15:16:03;;;;;;;;;3.00;2.00;;;;;;;;5077651;28;28322;-78
2023/12/24 15:18:32;;;;;;;;;4.00;3.00;;;;;;;;5063514;28;28482;-76
2023/12/24 15:21:14;;;;;;;;;7.00;3.00;;;;;;;;5082325;28;28349;-77
2023/12/24 15:23:39;;;;;;;;;4.33;2.00;;;;;;;;5057845;28;30568;-79
2023/12/24 15:26:08;;;;;;;;;4.33;2.33;;;;;;;;5064796;28;28440;-78
2023/12/24 15:31:29;;;;;;;;;3.00;2.67;;;;;;;;5033910;28;28477;-79
2023/12/24 15:33:55;;;;;;;;;3.00;3.00;;;;;;;;5069989;28;28843;-77
2023/12/24 15:36:23;;;;;;;;;7.67;3.00;;;;;;;;5071573;28;28795;-77
2023/12/24 15:38:48;;;;;;;;;6.00;3.00;;;;;;;;5067406;28;28807;-76
2023/12/24 15:41:15;;;;;;;;;4.67;2.33;;;;;;;;5070805;28;28515;-76
2023/12/24 15:43:44;;;;;;;;;5.33;3.00;;;;;;;;5047058;28;28444;-77